sensor_id;sensor_type;location;lat;lon;timestamp;pressure;altitude;pressure_sealevel;temperature;humidity
62057;BME280;48016;50.284;18.860;2023-03-31T00:00:45;97386.70;;;8.84;80.40
62057;BME280;48016;50.284;18.860;2023-03-31T00:03:13;97385.09;;;8.84;80.31
62057;BME280;48016;50.284;18.860;2023-03-31T00:05:47;97386.28;;;8.86;80.36
62057;BME280;48016;50.284;18.860;2023-03-31T00:08:13;97382.67;;;8.88;80.22
62057;BME280;48016;50.284;18.860;2023-03-31T00:10:44;97386.66;;;8.88;80.15
62057;BME280;48016;50.284;18.860;2023-03-31T00:13:11;97386.17;;;8.86;80.17
62057;BME280;48016;50.284;18.860;2023-03-31T00:15:38;97386.45;;;8.88;80.08
62057;BME280;48016;50.284;18.860;2023-03-31T00:18:04;97377.71;;;8.90;80.07
62057;BME280;48016;50.284;18.860;2023-03-31T00:20:31;97383.98;;;8.91;79.99
62057;BME280;48016;50.284;18.860;2023-03-31T00:22:58;97381.92;;;8.91;79.88
62057;BME280;48016;50.284;18.860;2023-03-31T00:25:26;97382.52;;;8.90;79.95
62057;BME280;48016;50.284;18.860;2023-03-31T00:27:52;97385.54;;;8.89;79.88
62057;BME280;48016;50.284;18.860;2023-03-31T00:30:19;97383.65;;;8.90;79.88
62057;BME280;48016;50.284;18.860;2023-03-31T00:32:45;97390.33;;;8.90;79.74
62057;BME280;48016;50.284;18.860;2023-03-31T00:35:11;97388.23;;;8.90;79.74
62057;BME280;48016;50.284;18.860;2023-03-31T00:37:37;97383.00;;;8.89;79.82
62057;BME280;48016;50.284;18.860;2023-03-31T00:40:04;97382.69;;;8.89;79.67
62057;BME280;48016;50.284;18.860;2023-03-31T00:42:41;97385.64;;;8.87;79.59
62057;BME280;48016;50.284;18.860;2023-03-31T00:47:50;97382.12;;;8.83;79.36
62057;BME280;48016;50.284;18.860;2023-03-31T00:50:23;97378.08;;;8.78;79.24
62057;BME280;48016;50.284;18.860;2023-03-31T00:52:59;97382.80;;;8.76;79.40
62057;BME280;48016;50.284;18.860;2023-03-31T00:55:39;97376.65;;;8.74;79.29
62057;BME280;48016;50.284;18.860;2023-03-31T00:58:07;97384.46;;;8.69;79.36
62057;BME280;48016;50.284;18.860;2023-03-31T01:00:34;97388.00;;;8.66;79.47
62057;BME280;48016;50.284;18.860;2023-03-31T01:03:05;97390.47;;;8.63;79.64
62057;BME280;48016;50.284;18.860;2023-03-31T01:05:59;97386.21;;;8.63;79.52
62057;BME280;48016;50.284;18.860;2023-03-31T01:08:26;97379.75;;;8.64;79.47
62057;BME280;48016;50.284;18.860;2023-03-31T01:10:56;97372.81;;;8.65;79.60
62057;BME280;48016;50.284;18.860;2023-03-31T01:13:23;97367.35;;;8.68;79.57
62057;BME280;48016;50.284;18.860;2023-03-31T01:15:50;97361.82;;;8.69;79.48
62057;BME280;48016;50.284;18.860;2023-03-31T01:18:16;97362.95;;;8.67;79.49
62057;BME280;48016;50.284;18.860;2023-03-31T01:35:54;97369.27;;;8.54;79.10
62057;BME280;48016;50.284;18.860;2023-03-31T01:44:36;97366.30;;;8.35;79.11
62057;BME280;48016;50.284;18.860;2023-03-31T01:53:04;97370.97;;;8.29;79.17
62057;BME280;48016;50.284;18.860;2023-03-31T01:55:38;97371.92;;;8.25;79.38
62057;BME280;48016;50.284;18.860;2023-03-31T01:58:21;97371.59;;;8.24;79.26
62057;BME280;48016;50.284;18.860;2023-03-31T02:00:57;97372.29;;;8.22;79.29
62057;BME280;48016;50.284;18.860;2023-03-31T02:03:36;97371.58;;;8.20;79.58
62057;BME280;48016;50.284;18.860;2023-03-31T02:06:13;97371.73;;;8.19;79.54
62057;BME280;48016;50.284;18.860;2023-03-31T02:08:48;97369.67;;;8.17;79.43
62057;BME280;48016;50.284;18.860;2023-03-31T02:11:15;97370.70;;;8.15;79.60
62057;BME280;48016;50.284;18.860;2023-03-31T02:13:45;97362.98;;;8.15;79.64
62057;BME280;48016;50.284;18.860;2023-03-31T02:16:15;97365.56;;;8.13;79.49
62057;BME280;48016;50.284;18.860;2023-03-31T02:18:45;97364.09;;;8.11;79.75
62057;BME280;48016;50.284;18.860;2023-03-31T02:21:13;97362.75;;;8.11;79.78
62057;BME280;48016;50.284;18.860;2023-03-31T02:23:41;97359.52;;;8.12;79.71
62057;BME280;48016;50.284;18.860;2023-03-31T02:26:13;97359.95;;;8.11;79.58
62057;BME280;48016;50.284;18.860;2023-03-31T02:28:40;97360.10;;;8.10;79.66
62057;BME280;48016;50.284;18.860;2023-03-31T02:33:48;97358.44;;;8.09;79.77
62057;BME280;48016;50.284;18.860;2023-03-31T02:36:15;97356.12;;;8.09;79.66
62057;BME280;48016;50.284;18.860;2023-03-31T02:38:49;97352.89;;;8.07;79.69
62057;BME280;48016;50.284;18.860;2023-03-31T02:41:16;97353.04;;;8.05;79.79
62057;BME280;48016;50.284;18.860;2023-03-31T02:43:42;97356.75;;;8.05;79.68
62057;BME280;48016;50.284;18.860;2023-03-31T02:46:08;97354.75;;;8.03;79.76
62057;BME280;48016;50.284;18.860;2023-03-31T02:48:37;97354.16;;;8.04;79.67
62057;BME280;48016;50.284;18.860;2023-03-31T02:59:59;97350.06;;;7.94;79.73
62057;BME280;48016;50.284;18.860;2023-03-31T03:08:37;97349.95;;;7.92;79.59
62057;BME280;48016;50.284;18.860;2023-03-31T03:11:24;97350.77;;;7.86;79.53
62057;BME280;48016;50.284;18.860;2023-03-31T03:14:03;97344.23;;;7.80;79.60
62057;BME280;48016;50.284;18.860;2023-03-31T03:16:36;97343.64;;;7.78;79.78
62057;BME280;48016;50.284;18.860;2023-03-31T03:19:05;97342.07;;;7.78;79.79
62057;BME280;48016;50.284;18.860;2023-03-31T03:21:32;97338.84;;;7.78;79.76
62057;BME280;48016;50.284;18.860;2023-03-31T03:23:58;97336.09;;;7.78;79.75
62057;BME280;48016;50.284;18.860;2023-03-31T03:26:25;97330.16;;;7.77;79.79
62057;BME280;48016;50.284;18.860;2023-03-31T03:28:54;97330.90;;;7.75;79.79
62057;BME280;48016;50.284;18.860;2023-03-31T03:31:20;97331.06;;;7.73;79.76
62057;BME280;48016;50.284;18.860;2023-03-31T03:33:51;97328.73;;;7.72;79.92
62057;BME280;48016;50.284;18.860;2023-03-31T03:36:18;97330.30;;;7.73;79.81
62057;BME280;48016;50.284;18.860;2023-03-31T03:38:45;97332.82;;;7.72;79.82
62057;BME280;48016;50.284;18.860;2023-03-31T03:41:11;97330.99;;;7.73;79.80
62057;BME280;48016;50.284;18.860;2023-03-31T03:43:36;97327.13;;;7.71;79.89
62057;BME280;48016;50.284;18.860;2023-03-31T03:46:02;97326.04;;;7.70;80.04
62057;BME280;48016;50.284;18.860;2023-03-31T03:48:29;97324.15;;;7.69;79.92
62057;BME280;48016;50.284;18.860;2023-03-31T03:50:58;97322.52;;;7.68;79.91
62057;BME280;48016;50.284;18.860;2023-03-31T03:53:24;97321.07;;;7.67;79.91
62057;BME280;48016;50.284;18.860;2023-03-31T03:55:50;97319.48;;;7.65;79.99
62057;BME280;48016;50.284;18.860;2023-03-31T03:58:16;97316.89;;;7.62;80.04
62057;BME280;48016;50.284;18.860;2023-03-31T04:00:44;97314.54;;;7.61;79.94
62057;BME280;48016;50.284;18.860;2023-03-31T04:03:11;97309.73;;;7.61;80.06
62057;BME280;48016;50.284;18.860;2023-03-31T04:05:37;97313.82;;;7.62;80.05
62057;BME280;48016;50.284;18.860;2023-03-31T04:08:03;97309.75;;;7.63;80.00
62057;BME280;48016;50.284;18.860;2023-03-31T04:10:31;97304.02;;;7.62;80.03
62057;BME280;48016;50.284;18.860;2023-03-31T04:12:56;97307.41;;;7.60;79.99
62057;BME280;48016;50.284;18.860;2023-03-31T04:15:22;97304.33;;;7.57;79.98
62057;BME280;48016;50.284;18.860;2023-03-31T04:17:48;97305.77;;;7.56;80.04
62057;BME280;48016;50.284;18.860;2023-03-31T04:20:19;97304.91;;;7.54;79.95
62057;BME280;48016;50.284;18.860;2023-03-31T04:22:46;97303.16;;;7.51;79.97
62057;BME280;48016;50.284;18.860;2023-03-31T04:25:15;97300.94;;;7.48;79.96
62057;BME280;48016;50.284;18.860;2023-03-31T04:27:46;97300.60;;;7.46;80.01
62057;BME280;48016;50.284;18.860;2023-03-31T04:30:23;97299.94;;;7.44;80.09
62057;BME280;48016;50.284;18.860;2023-03-31T04:33:00;97296.95;;;7.40;79.90
62057;BME280;48016;50.284;18.860;2023-03-31T04:35:29;97296.88;;;7.36;79.96
62057;BME280;48016;50.284;18.860;2023-03-31T04:38:21;97291.83;;;7.31;80.01
62057;BME280;48016;50.284;18.860;2023-03-31T04:40:49;97294.29;;;7.25;79.92
62057;BME280;48016;50.284;18.860;2023-03-31T04:43:17;97293.92;;;7.21;80.12
62057;BME280;48016;50.284;18.860;2023-03-31T04:45:43;97289.38;;;7.18;80.03
62057;BME280;48016;50.284;18.860;2023-03-31T04:48:09;97282.31;;;7.14;80.13
62057;BME280;48016;50.284;18.860;2023-03-31T04:50:35;97283.27;;;7.12;80.21
62057;BME280;48016;50.284;18.860;2023-03-31T04:53:02;97278.00;;;7.13;80.22
62057;BME280;48016;50.284;18.860;2023-03-31T04:55:29;97276.83;;;7.14;80.20
62057;BME280;48016;50.284;18.860;2023-03-31T04:57:55;97275.17;;;7.15;80.24
62057;BME280;48016;50.284;18.860;2023-03-31T05:00:22;97273.02;;;7.16;80.24
62057;BME280;48016;50.284;18.860;2023-03-31T05:02:48;97270.46;;;7.19;80.22
62057;BME280;48016;50.284;18.860;2023-03-31T05:05:14;97269.05;;;7.23;80.14
62057;BME280;48016;50.284;18.860;2023-03-31T05:07:40;97266.38;;;7.27;80.21
62057;BME280;48016;50.284;18.860;2023-03-31T05:10:06;97267.34;;;7.33;80.17
62057;BME280;48016;50.284;18.860;2023-03-31T05:12:34;97264.59;;;7.43;80.19
62057;BME280;48016;50.284;18.860;2023-03-31T05:15:00;97260.14;;;7.54;80.05
62057;BME280;48016;50.284;18.860;2023-03-31T05:17:26;97261.58;;;7.62;80.12
62057;BME280;48016;50.284;18.860;2023-03-31T05:19:52;97264.02;;;7.76;79.90
62057;BME280;48016;50.284;18.860;2023-03-31T05:22:18;97263.55;;;7.89;79.65
62057;BME280;48016;50.284;18.860;2023-03-31T05:24:48;97261.14;;;8.03;79.56
62057;BME280;48016;50.284;18.860;2023-03-31T05:27:15;97254.81;;;8.17;79.48
62057;BME280;48016;50.284;18.860;2023-03-31T05:29:41;97251.91;;;8.33;79.28
62057;BME280;48016;50.284;18.860;2023-03-31T05:32:07;97246.42;;;8.50;78.93
62057;BME280;48016;50.284;18.860;2023-03-31T05:34:32;97240.36;;;8.72;78.66
62057;BME280;48016;50.284;18.860;2023-03-31T05:36:58;97241.11;;;8.97;78.35
62057;BME280;48016;50.284;18.860;2023-03-31T05:39:24;97243.73;;;9.28;77.92
62057;BME280;48016;50.284;18.860;2023-03-31T05:41:50;97242.86;;;9.57;77.48
62057;BME280;48016;50.284;18.860;2023-03-31T05:44:16;97244.11;;;9.85;76.71
62057;BME280;48016;50.284;18.860;2023-03-31T05:46:45;97244.41;;;10.15;75.94
62057;BME280;48016;50.284;18.860;2023-03-31T05:49:11;97242.36;;;10.42;75.38
62057;BME280;48016;50.284;18.860;2023-03-31T05:51:37;97242.77;;;10.69;74.37
62057;BME280;48016;50.284;18.860;2023-03-31T05:54:03;97238.33;;;10.93;73.86
62057;BME280;48016;50.284;18.860;2023-03-31T05:56:30;97237.27;;;11.16;72.89
62057;BME280;48016;50.284;18.860;2023-03-31T05:58:59;97237.15;;;11.35;72.20
62057;BME280;48016;50.284;18.860;2023-03-31T06:01:25;97239.95;;;11.56;71.73
62057;BME280;48016;50.284;18.860;2023-03-31T06:03:51;97237.63;;;11.81;71.35
62057;BME280;48016;50.284;18.860;2023-03-31T06:06:17;97235.61;;;12.07;71.00
62057;BME280;48016;50.284;18.860;2023-03-31T06:08:45;97233.25;;;12.37;70.48
62057;BME280;48016;50.284;18.860;2023-03-31T06:11:14;97230.70;;;12.62;70.04
62057;BME280;48016;50.284;18.860;2023-03-31T06:13:41;97233.13;;;12.83;68.92
62057;BME280;48016;50.284;18.860;2023-03-31T06:16:09;97236.92;;;13.03;68.57
62057;BME280;48016;50.284;18.860;2023-03-31T06:18:36;97239.63;;;13.24;68.11
62057;BME280;48016;50.284;18.860;2023-03-31T06:21:02;97236.19;;;13.48;67.72
62057;BME280;48016;50.284;18.860;2023-03-31T06:23:28;97231.27;;;13.73;66.86
62057;BME280;48016;50.284;18.860;2023-03-31T06:25:59;97227.72;;;14.01;66.68
62057;BME280;48016;50.284;18.860;2023-03-31T06:28:26;97221.48;;;14.21;65.12
62057;BME280;48016;50.284;18.860;2023-03-31T06:30:59;97222.43;;;14.30;64.39
62057;BME280;48016;50.284;18.860;2023-03-31T06:33:25;97220.03;;;14.45;64.16
62057;BME280;48016;50.284;18.860;2023-03-31T06:35:54;97218.85;;;14.60;63.48
62057;BME280;48016;50.284;18.860;2023-03-31T06:38:21;97221.80;;;14.79;63.27
62057;BME280;48016;50.284;18.860;2023-03-31T06:40:46;97212.58;;;15.02;63.12
62057;BME280;48016;50.284;18.860;2023-03-31T06:43:13;97213.86;;;15.23;62.03
62057;BME280;48016;50.284;18.860;2023-03-31T06:45:38;97217.90;;;15.33;61.67
62057;BME280;48016;50.284;18.860;2023-03-31T06:48:05;97211.74;;;15.35;61.30
62057;BME280;48016;50.284;18.860;2023-03-31T06:50:31;97215.09;;;15.41;60.75
62057;BME280;48016;50.284;18.860;2023-03-31T06:52:57;97214.79;;;15.52;60.74
62057;BME280;48016;50.284;18.860;2023-03-31T06:55:24;97217.59;;;15.68;59.95
62057;BME280;48016;50.284;18.860;2023-03-31T06:57:50;97216.63;;;15.88;59.86
62057;BME280;48016;50.284;18.860;2023-03-31T07:00:17;97213.58;;;16.09;59.51
62057;BME280;48016;50.284;18.860;2023-03-31T07:02:43;97216.83;;;16.21;58.45
62057;BME280;48016;50.284;18.860;2023-03-31T07:05:09;97212.51;;;16.32;58.29
62057;BME280;48016;50.284;18.860;2023-03-31T07:07:35;97209.06;;;16.32;57.69
62057;BME280;48016;50.284;18.860;2023-03-31T07:10:00;97209.02;;;16.21;57.95
62057;BME280;48016;50.284;18.860;2023-03-31T07:12:26;97205.63;;;16.28;57.85
62057;BME280;48016;50.284;18.860;2023-03-31T07:14:52;97202.08;;;16.41;57.60
62057;BME280;48016;50.284;18.860;2023-03-31T07:17:18;97198.41;;;16.57;57.13
62057;BME280;48016;50.284;18.860;2023-03-31T07:19:45;97198.02;;;16.68;57.06
62057;BME280;48016;50.284;18.860;2023-03-31T07:22:13;97201.27;;;16.75;55.90
62057;BME280;48016;50.284;18.860;2023-03-31T07:24:40;97197.08;;;16.77;55.93
62057;BME280;48016;50.284;18.860;2023-03-31T07:27:06;97193.33;;;16.84;55.61
62057;BME280;48016;50.284;18.860;2023-03-31T07:29:32;97196.06;;;16.83;55.82
62057;BME280;48016;50.284;18.860;2023-03-31T07:31:58;97195.17;;;16.95;55.83
62057;BME280;48016;50.284;18.860;2023-03-31T07:34:24;97190.64;;;17.13;55.24
62057;BME280;48016;50.284;18.860;2023-03-31T07:36:53;97189.55;;;17.28;55.24
62057;BME280;48016;50.284;18.860;2023-03-31T07:39:19;97184.67;;;17.38;54.71
62057;BME280;48016;50.284;18.860;2023-03-31T07:41:45;97179.56;;;17.56;54.72
62057;BME280;48016;50.284;18.860;2023-03-31T07:44:11;97176.52;;;17.62;54.18
62057;BME280;48016;50.284;18.860;2023-03-31T07:46:38;97174.41;;;17.64;53.61
62057;BME280;48016;50.284;18.860;2023-03-31T07:49:04;97174.50;;;17.60;53.11
62057;BME280;48016;50.284;18.860;2023-03-31T07:51:31;97178.02;;;17.60;53.35
62057;BME280;48016;50.284;18.860;2023-03-31T07:53:57;97177.61;;;17.62;53.38
62057;BME280;48016;50.284;18.860;2023-03-31T07:56:24;97177.09;;;17.47;52.69
62057;BME280;48016;50.284;18.860;2023-03-31T07:58:50;97183.98;;;17.33;53.27
62057;BME280;48016;50.284;18.860;2023-03-31T08:01:20;97180.83;;;17.06;52.90
62057;BME280;48016;50.284;18.860;2023-03-31T08:03:50;97178.91;;;16.89;53.34
62057;BME280;48016;50.284;18.860;2023-03-31T08:06:21;97172.76;;;16.75;53.02
62057;BME280;48016;50.284;18.860;2023-03-31T08:08:48;97162.20;;;16.64;53.49
62057;BME280;48016;50.284;18.860;2023-03-31T08:11:15;97154.81;;;16.58;53.66
62057;BME280;48016;50.284;18.860;2023-03-31T08:13:41;97150.07;;;16.51;53.71
62057;BME280;48016;50.284;18.860;2023-03-31T08:16:06;97147.02;;;16.49;53.76
62057;BME280;48016;50.284;18.860;2023-03-31T08:18:32;97145.35;;;16.50;54.10
62057;BME280;48016;50.284;18.860;2023-03-31T08:20:58;97140.57;;;16.48;53.78
62057;BME280;48016;50.284;18.860;2023-03-31T08:23:24;97136.48;;;16.44;53.94
62057;BME280;48016;50.284;18.860;2023-03-31T08:25:51;97129.02;;;16.42;53.97
62057;BME280;48016;50.284;18.860;2023-03-31T08:28:17;97123.44;;;16.39;54.05
62057;BME280;48016;50.284;18.860;2023-03-31T08:30:43;97120.29;;;16.40;54.11
62057;BME280;48016;50.284;18.860;2023-03-31T08:33:09;97117.14;;;16.45;54.26
62057;BME280;48016;50.284;18.860;2023-03-31T08:35:37;97115.25;;;16.42;53.61
62057;BME280;48016;50.284;18.860;2023-03-31T08:38:03;97104.23;;;16.41;53.88
62057;BME280;48016;50.284;18.860;2023-03-31T08:40:30;97097.83;;;16.45;54.11
62057;BME280;48016;50.284;18.860;2023-03-31T08:43:03;97092.84;;;16.54;53.68
62057;BME280;48016;50.284;18.860;2023-03-31T08:45:36;97090.52;;;16.60;53.53
62057;BME280;48016;50.284;18.860;2023-03-31T08:50:46;97080.99;;;16.49;53.42
62057;BME280;48016;50.284;18.860;2023-03-31T08:53:34;97076.96;;;16.49;53.76
62057;BME280;48016;50.284;18.860;2023-03-31T08:56:03;97070.95;;;16.53;53.93
62057;BME280;48016;50.284;18.860;2023-03-31T08:58:35;97067.86;;;16.57;54.21
62057;BME280;48016;50.284;18.860;2023-03-31T09:01:29;97068.83;;;16.54;53.90
62057;BME280;48016;50.284;18.860;2023-03-31T09:15:23;97050.23;;;16.49;53.57
62057;BME280;48016;50.284;18.860;2023-03-31T09:17:52;97044.27;;;16.44;53.92
62057;BME280;48016;50.284;18.860;2023-03-31T09:20:33;97040.39;;;16.51;54.04
62057;BME280;48016;50.284;18.860;2023-03-31T09:25:46;97035.77;;;16.50;53.92
62057;BME280;48016;50.284;18.860;2023-03-31T09:28:21;97036.58;;;16.49;53.87
62057;BME280;48016;50.284;18.860;2023-03-31T09:30:48;97032.10;;;16.40;53.63
62057;BME280;48016;50.284;18.860;2023-03-31T09:33:26;97028.97;;;16.40;53.87
62057;BME280;48016;50.284;18.860;2023-03-31T09:36:00;97022.20;;;16.50;54.05
62057;BME280;48016;50.284;18.860;2023-03-31T09:38:27;97014.74;;;16.58;53.87
62057;BME280;48016;50.284;18.860;2023-03-31T09:40:56;97012.66;;;16.67;54.20
62057;BME280;48016;50.284;18.860;2023-03-31T09:43:24;97018.39;;;16.70;54.03
62057;BME280;48016;50.284;18.860;2023-03-31T09:45:52;97018.43;;;16.58;53.82
62057;BME280;48016;50.284;18.860;2023-03-31T09:48:22;97012.67;;;16.53;53.72
62057;BME280;48016;50.284;18.860;2023-03-31T09:50:52;97004.52;;;16.58;53.79
62057;BME280;48016;50.284;18.860;2023-03-31T09:53:37;96999.69;;;16.67;53.70
62057;BME280;48016;50.284;18.860;2023-03-31T09:56:06;97002.79;;;16.67;53.26
62057;BME280;48016;50.284;18.860;2023-03-31T09:58:40;97001.36;;;16.68;53.42
62057;BME280;48016;50.284;18.860;2023-03-31T10:01:09;97001.02;;;16.63;52.93
62057;BME280;48016;50.284;18.860;2023-03-31T10:03:50;97002.92;;;16.59;53.36
62057;BME280;48016;50.284;18.860;2023-03-31T10:06:17;96999.52;;;16.52;53.38
62057;BME280;48016;50.284;18.860;2023-03-31T10:08:56;96999.01;;;16.45;53.50
62057;BME280;48016;50.284;18.860;2023-03-31T10:11:24;97000.86;;;16.38;53.43
62057;BME280;48016;50.284;18.860;2023-03-31T10:13:58;97000.33;;;16.27;53.32
62057;BME280;48016;50.284;18.860;2023-03-31T10:16:30;96989.36;;;16.13;53.49
62057;BME280;48016;50.284;18.860;2023-03-31T10:19:19;96990.48;;;15.98;53.63
62057;BME280;48016;50.284;18.860;2023-03-31T10:21:48;96983.66;;;15.81;53.82
62057;BME280;48016;50.284;18.860;2023-03-31T10:24:19;96985.00;;;15.71;54.20
62057;BME280;48016;50.284;18.860;2023-03-31T10:26:48;96983.07;;;15.70;54.65
62057;BME280;48016;50.284;18.860;2023-03-31T10:29:22;96981.58;;;15.74;54.68
62057;BME280;48016;50.284;18.860;2023-03-31T10:31:51;96977.92;;;15.71;54.71
62057;BME280;48016;50.284;18.860;2023-03-31T10:34:17;96977.05;;;15.74;54.95
62057;BME280;48016;50.284;18.860;2023-03-31T10:36:46;96969.70;;;15.80;54.76
62057;BME280;48016;50.284;18.860;2023-03-31T10:39:15;96968.77;;;15.85;54.85
62057;BME280;48016;50.284;18.860;2023-03-31T10:41:42;96968.55;;;15.97;54.86
62057;BME280;48016;50.284;18.860;2023-03-31T10:44:32;96968.27;;;16.04;54.65
62057;BME280;48016;50.284;18.860;2023-03-31T10:47:25;96963.70;;;15.98;54.64
62057;BME280;48016;50.284;18.860;2023-03-31T10:49:57;96958.39;;;16.01;54.76
62057;BME280;48016;50.284;18.860;2023-03-31T10:52:25;96954.92;;;16.13;54.66
62057;BME280;48016;50.284;18.860;2023-03-31T10:54:55;96947.98;;;16.25;54.38
62057;BME280;48016;50.284;18.860;2023-03-31T11:05:48;96939.41;;;16.61;53.97
62057;BME280;48016;50.284;18.860;2023-03-31T11:11:26;96925.38;;;16.76;53.28
62057;BME280;48016;50.284;18.860;2023-03-31T11:14:00;96928.05;;;16.63;53.00
62057;BME280;48016;50.284;18.860;2023-03-31T11:22:14;96913.23;;;16.54;52.88
62057;BME280;48016;50.284;18.860;2023-03-31T11:30:03;96904.72;;;16.27;52.69
62057;BME280;48016;50.284;18.860;2023-03-31T11:40:39;96898.37;;;16.09;53.14
62057;BME280;48016;50.284;18.860;2023-03-31T11:45:52;96888.73;;;15.99;53.47
62057;BME280;48016;50.284;18.860;2023-03-31T11:51:43;96875.42;;;15.97;53.49
62057;BME280;48016;50.284;18.860;2023-03-31T11:54:18;96868.99;;;15.97;53.81
62057;BME280;48016;50.284;18.860;2023-03-31T11:56:45;96859.20;;;16.08;53.89
62057;BME280;48016;50.284;18.860;2023-03-31T11:59:14;96852.88;;;16.13;53.39
62057;BME280;48016;50.284;18.860;2023-03-31T12:06:51;96844.13;;;16.18;53.87
62057;BME280;48016;50.284;18.860;2023-03-31T12:09:32;96841.86;;;16.21;54.47
62057;BME280;48016;50.284;18.860;2023-03-31T12:12:22;96838.67;;;16.27;54.70
62057;BME280;48016;50.284;18.860;2023-03-31T12:14:52;96830.27;;;16.25;54.76
62057;BME280;48016;50.284;18.860;2023-03-31T12:17:25;96819.13;;;16.20;54.84
62057;BME280;48016;50.284;18.860;2023-03-31T12:20:04;96819.98;;;16.16;54.47
62057;BME280;48016;50.284;18.860;2023-03-31T12:22:38;96815.02;;;16.15;54.42
62057;BME280;48016;50.284;18.860;2023-03-31T12:25:12;96806.22;;;16.18;54.03
62057;BME280;48016;50.284;18.860;2023-03-31T12:27:44;96804.27;;;16.24;53.72
62057;BME280;48016;50.284;18.860;2023-03-31T12:30:33;96795.08;;;16.31;53.22
62057;BME280;48016;50.284;18.860;2023-03-31T12:33:11;96787.13;;;16.32;52.44
62057;BME280;48016;50.284;18.860;2023-03-31T12:49:31;96759.83;;;15.98;51.19
62057;BME280;48016;50.284;18.860;2023-03-31T12:57:29;96750.44;;;15.65;50.82
62057;BME280;48016;50.284;18.860;2023-03-31T13:02:37;96743.55;;;15.48;50.61
62057;BME280;48016;50.284;18.860;2023-03-31T13:08:02;96746.09;;;15.46;50.75
62057;BME280;48016;50.284;18.860;2023-03-31T13:10:29;96744.31;;;15.45;50.76
62057;BME280;48016;50.284;18.860;2023-03-31T13:13:12;96732.71;;;15.42;50.42
62057;BME280;48016;50.284;18.860;2023-03-31T13:15:39;96739.64;;;15.29;50.49
62057;BME280;48016;50.284;18.860;2023-03-31T13:18:06;96741.35;;;15.16;50.57
62057;BME280;48016;50.284;18.860;2023-03-31T13:20:38;96743.12;;;15.07;50.77
62057;BME280;48016;50.284;18.860;2023-03-31T13:23:11;96741.95;;;14.98;50.90
62057;BME280;48016;50.284;18.860;2023-03-31T13:25:45;96739.39;;;14.97;50.75
62057;BME280;48016;50.284;18.860;2023-03-31T13:28:17;96736.36;;;15.00;50.46
62057;BME280;48016;50.284;18.860;2023-03-31T13:35:50;96722.38;;;15.27;50.02
62057;BME280;48016;50.284;18.860;2023-03-31T13:46:15;96713.30;;;15.12;50.72
62057;BME280;48016;50.284;18.860;2023-03-31T13:49:33;96713.52;;;15.10;51.23
62057;BME280;48016;50.284;18.860;2023-03-31T13:52:09;96712.91;;;15.01;51.64
62057;BME280;48016;50.284;18.860;2023-03-31T14:02:58;96703.34;;;14.33;55.32
62057;BME280;48016;50.284;18.860;2023-03-31T14:05:32;96698.42;;;14.18;56.30
62057;BME280;48016;50.284;18.860;2023-03-31T14:08:11;96698.70;;;14.06;56.51
62057;BME280;48016;50.284;18.860;2023-03-31T14:10:41;96697.16;;;13.87;57.56
62057;BME280;48016;50.284;18.860;2023-03-31T14:13:16;96697.17;;;13.72;58.63
62057;BME280;48016;50.284;18.860;2023-03-31T14:15:44;96691.64;;;13.62;58.82
62057;BME280;48016;50.284;18.860;2023-03-31T14:18:21;96686.81;;;13.47;59.80
62057;BME280;48016;50.284;18.860;2023-03-31T14:23:39;96674.04;;;13.18;61.41
62057;BME280;48016;50.284;18.860;2023-03-31T14:31:33;96673.96;;;12.80;63.45
62057;BME280;48016;50.284;18.860;2023-03-31T14:36:58;96667.90;;;12.66;64.39
62057;BME280;48016;50.284;18.860;2023-03-31T14:39:34;96659.42;;;12.58;64.88
62057;BME280;48016;50.284;18.860;2023-03-31T14:42:05;96656.04;;;12.50;65.48
62057;BME280;48016;50.284;18.860;2023-03-31T14:44:35;96646.59;;;12.41;66.04
62057;BME280;48016;50.284;18.860;2023-03-31T14:47:01;96639.32;;;12.27;66.97
62057;BME280;48016;50.284;18.860;2023-03-31T14:49:34;96632.20;;;12.16;67.15
62057;BME280;48016;50.284;18.860;2023-03-31T14:52:20;96631.35;;;12.07;67.74
62057;BME280;48016;50.284;18.860;2023-03-31T14:54:48;96623.68;;;12.04;68.07
62057;BME280;48016;50.284;18.860;2023-03-31T14:57:19;96624.14;;;12.04;67.97
62057;BME280;48016;50.284;18.860;2023-03-31T14:59:49;96619.86;;;12.01;68.04
62057;BME280;48016;50.284;18.860;2023-03-31T15:02:20;96611.30;;;11.96;68.70
62057;BME280;48016;50.284;18.860;2023-03-31T15:04:49;96611.24;;;11.91;68.88
62057;BME280;48016;50.284;18.860;2023-03-31T15:07:16;96617.95;;;11.87;69.26
62057;BME280;48016;50.284;18.860;2023-03-31T15:09:46;96610.01;;;11.82;69.37
62057;BME280;48016;50.284;18.860;2023-03-31T15:12:14;96605.80;;;11.77;69.80
62057;BME280;48016;50.284;18.860;2023-03-31T15:14:44;96600.23;;;11.73;70.13
62057;BME280;48016;50.284;18.860;2023-03-31T15:17:18;96594.48;;;11.71;70.89
62057;BME280;48016;50.284;18.860;2023-03-31T15:19:44;96582.30;;;11.69;70.85
62057;BME280;48016;50.284;18.860;2023-03-31T15:22:14;96578.10;;;11.65;71.09
62057;BME280;48016;50.284;18.860;2023-03-31T15:24:43;96567.11;;;11.60;71.50
62057;BME280;48016;50.284;18.860;2023-03-31T15:27:31;96566.45;;;11.59;71.74
62057;BME280;48016;50.284;18.860;2023-03-31T15:30:02;96560.16;;;11.59;71.67
62057;BME280;48016;50.284;18.860;2023-03-31T15:32:31;96559.30;;;11.66;71.83
62057;BME280;48016;50.284;18.860;2023-03-31T15:34:59;96557.66;;;11.79;72.05
62057;BME280;48016;50.284;18.860;2023-03-31T15:37:39;96548.77;;;11.88;71.99
62057;BME280;48016;50.284;18.860;2023-03-31T15:40:16;96544.04;;;11.92;72.13
62057;BME280;48016;50.284;18.860;2023-03-31T15:42:45;96546.08;;;11.94;72.42
62057;BME280;48016;50.284;18.860;2023-03-31T15:47:51;96539.17;;;11.98;72.78
62057;BME280;48016;50.284;18.860;2023-03-31T15:50:21;96534.42;;;11.99;73.03
62057;BME280;48016;50.284;18.860;2023-03-31T15:52:52;96537.56;;;11.97;72.85